LFMLLIEE

Guest
Details From LFML - Marseille Provence
To LIEE - Cagliari Elmas
Flight Number -
Tags generated
Created
Modified
Stats Distance 308 nm / 571 km
Max Altitude 35,000 ft / 10,668 m
Waypoints 6
Social Downloads 1
Likes 0
Share VATSIM

Download

Looking for another format? Having issues loading an existing format? Contact us
Advertisement - Login to hide

Notes

Basic altitude profile: - Ascent Rate: 2500ft/min - Ascent Speed: 200kts - Cruise Altitude: 30000ft - Cruise Speed: 250kts - Descent Rate: 1500ft/min - Descent Speed: 230kts Options: - Use NATs: yes - Use PACOTS: yes - Use low airways: yes - Use high airways: yes

Route

LFML LARAP UM731 REKTO M731 ARPAG LIEE

ID Type Via Altitude (ft/m) Position (lat/lon) Dist (leg/tot) Name
O LFML APT - 0 / 0 43.43589 / 5.21328 - / 0 nm Marseille Provence
LARAP FIX - 35,000 / 10,668 42.00139 / 6.33389 99 / 99 nm
NEMUR FIX UM731 (AWY-HI) 33,000 / 10,058 41.37444 / 7.22111 54 / 154 nm
REKTO FIX UM731 (AWY-HI) 27,700 / 8,443 41.09194 / 7.61250 24 / 178 nm
ARPAG FIX M731 (AWY-LO) 21,800 / 6,645 40.82583 / 7.97667 22 / 201 nm
O LIEE APT - 0 / 0 39.25147 / 9.05429 106 / 308 nm Cagliari Elmas

Altitude Profile

Advertisement - Login to hide

Weather


0- 5 10 15 20 25 30 35+ Temperature / °C

Clouds and Precipitation
Forecast for 2018-10-22 00:00 UTC. Updated 4 hours ago

Ground ~20,000 ft ~40,000 ft Winds

LFML

Details ICAO LFML (MRS)
Name Marseille Provence
Region France
Timezone Europe/Paris (UTC+2.0)
Stats Elevation 74 ft / 23 m (AMSL)
Location 43.435800° 5.213420°
Runways 2
Magnetic Variation 1.650° E

METAR

LFML 220100Z AUTO 13005KT CAVOK 12/10 Q1018 NOSIG

Decode

TAF

TAF TAF LFML 212000Z 2121/2303 34006KT CAVOK TX21/2213Z TN13/2222Z BECMG 2121/2123 VRB03KT SCT040 TEMPO 2201/2207 BKN035 BECMG 2207/2208 CAVOK BECMG 2209/2211 31013KT BECMG 2220/2222 VRB03KT

Decode

Departure Runways

ID Width Length Bearing (true/mag) Surface Threshold Overrun Markings Lighting
13L 148 ft / 45 m 11,489 ft / 3,502 m 134.03° / 132.38° ASPHALT 1,115 ft / 340 m 295 ft / 90 m VISUAL CENTERLINE EDGE THRESHOLD ALSF-I TDZ REIL-OMNI
13R 148 ft / 45 m 7,783 ft / 2,372 m 134.89° / 133.24° ASPHALT 0 ft / 0 m 190 ft / 58 m APP EDGE THRESHOLD REIL-OMNI
31L 148 ft / 45 m 7,783 ft / 2,372 m 314.91° / 313.26° ASPHALT 344 ft / 105 m 197 ft / 60 m APP EDGE THRESHOLD REIL-OMNI
31R 148 ft / 45 m 11,489 ft / 3,502 m 314.06° / 312.41° ASPHALT 2,165 ft / 660 m 331 ft / 101 m VISUAL CENTERLINE EDGE THRESHOLD ALSF-I TDZ REIL-OMNI

LIEE

Details ICAO LIEE (CAG)
Name Cagliari Elmas
Region Italy
Timezone Europe/Rome (UTC+2.0)
Stats Elevation 13 ft / 4 m (AMSL)
Location 39.251500° 9.054330°
Runways 1
Magnetic Variation 2.384° E

METAR

LIEE 220050Z 01006KT 8000 SCT030 19/17 Q1015

Decode

TAF

TAF LIEE 212300Z 2200/2224 VRB05KT CAVOK BECMG 2206/2209 33012KT= TAF LIEO 212300Z 2200/2224 02012KT CAVOK TEMPO 2200/2206 TSRA BECMG 2208/2210 03015G25KT

Decode

Destination Runways

ID Width Length Bearing (true/mag) Surface Threshold Overrun Markings Lighting
14 148 ft / 45 m 9,200 ft / 2,804 m 138.08° / 135.70° ASPHALT 0 ft / 0 m 0 ft / 0 m PREC-APP EDGE THRESHOLD REIL-OMNI
32 148 ft / 45 m 9,200 ft / 2,804 m 318.10° / 315.71° ASPHALT 0 ft / 0 m 0 ft / 0 m PREC-APP EDGE THRESHOLD ALSF-I REIL-OMNI

Approach Navaids

Runway Type Ident Frequency Range Bearing (true/mag) Slope Elevation
32 MM MM - - 318.08° / 315.70 ° - 13 ft / 4 m (AMSL)
32 DME IEL 109.50 MHz 18 nm / 33 km - - 26 ft / 8 m (AMSL)
32 GS IEL 109.50 MHz 10 nm / 19 km 318.10° / 315.72 ° 3.00° 13 ft / 4 m (AMSL)
32 LOC-ILS IEL 109.50 MHz 18 nm / 33 km 318.10° / 315.72 ° - 13 ft / 4 m (AMSL)
32 OM OM - - 318.08° / 315.70 ° - 13 ft / 4 m (AMSL)

Popular Alternatives